createdAt,value
2019-03-03T00:00:05.343Z,66.25
2019-03-03T00:06:00.364Z,57.89
2019-03-03T00:11:55.364Z,52.66
2019-03-03T00:17:50.362Z,54.47
2019-03-03T00:23:45.375Z,51.54
2019-03-03T00:29:40.416Z,53.54
2019-03-03T00:35:35.366Z,51.31
2019-03-03T00:41:30.372Z,53.89
2019-03-03T00:47:25.447Z,65.93
2019-03-03T00:53:20.473Z,68.82
2019-03-03T00:59:15.372Z,70.11
2019-03-03T01:05:10.395Z,68.68
2019-03-03T01:11:05.398Z,69.75
2019-03-03T01:17:00.392Z,68.07
2019-03-03T01:22:55.398Z,59.52
2019-03-03T01:28:50.459Z,52.86
2019-03-03T01:34:45.413Z,55.61
2019-03-03T01:40:40.401Z,45.92
2019-03-03T01:46:35.414Z,54.51
2019-03-03T01:52:30.480Z,56.31
2019-03-03T01:58:25.458Z,52.04
2019-03-03T02:04:20.417Z,48.35
2019-03-03T02:10:15.445Z,55.46
2019-03-03T02:16:10.431Z,64.41
2019-03-03T02:22:05.420Z,61.9
2019-03-03T02:28:00.422Z,60.4
2019-03-03T02:33:55.433Z,57.87
2019-03-03T02:39:50.431Z,53.46
2019-03-03T02:45:45.446Z,62.42
2019-03-03T02:51:40.548Z,55.62
2019-03-03T02:57:35.445Z,56.81
2019-03-03T03:03:30.474Z,63.39
2019-03-03T03:09:25.470Z,62.01
2019-03-03T03:15:20.465Z,62.97
2019-03-03T03:21:15.465Z,61.78
2019-03-03T03:27:10.495Z,63.78
2019-03-03T03:33:05.498Z,68.61
2019-03-03T03:39:00.461Z,66.94
2019-03-03T03:44:55.474Z,69.25
2019-03-03T03:50:50.475Z,63.04
2019-03-03T03:56:45.534Z,68.43
2019-03-03T04:02:40.551Z,63.89
2019-03-03T04:08:35.532Z,60.96
2019-03-03T04:14:32.108Z,54.93
2019-03-03T04:20:25.521Z,50.67
2019-03-03T04:26:20.524Z,60.03
2019-03-03T04:32:15.487Z,60.44
2019-03-03T04:38:10.495Z,63.15
2019-03-03T04:44:05.505Z,63.38
2019-03-03T04:50:00.500Z,57.49
2019-03-03T04:55:55.532Z,60.41
2019-03-03T05:01:50.511Z,53.42
2019-03-03T05:07:45.540Z,55.53
2019-03-03T05:13:40.583Z,45.42
2019-03-03T05:19:35.534Z,58.91
2019-03-03T05:25:30.542Z,69.61
2019-03-03T05:31:25.534Z,49.47
2019-03-03T05:37:20.553Z,50.51
2019-03-03T05:43:15.519Z,64.73
2019-03-03T05:49:10.551Z,56.75
2019-03-03T05:55:05.582Z,62.58
2019-03-03T06:01:00.527Z,62.84
2019-03-03T06:06:55.578Z,54.2
2019-03-03T06:12:50.545Z,56.78
2019-03-03T06:18:45.548Z,61.22
2019-03-03T06:24:40.571Z,51.49
2019-03-03T06:30:35.580Z,67.86
2019-03-03T06:36:30.573Z,74.49
2019-03-03T06:42:25.588Z,75.4
2019-03-03T06:48:20.640Z,78.14
2019-03-03T06:54:15.609Z,71.55
2019-03-03T07:00:10.584Z,71.97
2019-03-03T07:06:05.620Z,82.67
2019-03-03T07:12:00.572Z,88
2019-03-03T07:17:55.611Z,88.58
2019-03-03T07:23:50.610Z,92.23
2019-03-03T07:29:45.603Z,77.37
2019-03-03T07:35:40.591Z,78.55
2019-03-03T07:41:35.635Z,68.34
2019-03-03T07:47:30.606Z,78.21
2019-03-03T07:53:25.611Z,88.08
2019-03-03T07:59:20.600Z,79.64
2019-03-03T08:05:15.640Z,74.55
2019-03-03T08:11:10.614Z,71.82
2019-03-03T08:17:05.623Z,78.46
2019-03-03T08:23:00.610Z,69.2
2019-03-03T08:28:55.647Z,79.24
2019-03-03T08:34:50.619Z,71.13
2019-03-03T08:40:45.665Z,80.55
2019-03-03T08:46:40.655Z,77.51
2019-03-03T08:52:35.636Z,81.3
2019-03-03T08:58:30.636Z,74.55
2019-03-03T09:04:25.666Z,69.07
2019-03-03T09:10:25.309Z,70.79
2019-03-03T09:16:15.653Z,64.47
2019-03-03T09:22:10.648Z,74.78
2019-03-03T09:28:05.642Z,73.05
2019-03-03T09:34:00.653Z,79.43
2019-03-03T09:39:55.693Z,71.8
2019-03-03T09:45:50.730Z,71.28
2019-03-03T09:51:45.733Z,67.5
2019-03-03T09:57:40.703Z,72.14
2019-03-03T10:03:35.673Z,67.14
2019-03-03T10:09:30.674Z,57.32
2019-03-03T10:15:25.676Z,64.76
2019-03-03T10:21:20.684Z,64.5
2019-03-03T10:27:15.764Z,58.89
2019-03-03T10:33:10.684Z,57.32
2019-03-03T10:39:05.724Z,51.84
2019-03-03T10:45:00.712Z,44.9
2019-03-03T10:50:55.717Z,56.22
2019-03-03T10:56:50.717Z,48.75
2019-03-03T11:02:45.725Z,51.28
2019-03-03T11:08:40.721Z,52.3
2019-03-03T11:14:35.711Z,48.41
2019-03-03T11:20:30.722Z,48.52
2019-03-03T11:26:25.723Z,50.18
2019-03-03T11:32:20.751Z,46.92
2019-03-03T11:38:15.747Z,42.18
2019-03-03T11:44:10.761Z,42.64
2019-03-03T11:50:05.763Z,45.44
2019-03-03T11:56:00.778Z,69.8
2019-03-03T12:01:55.756Z,37.94
2019-03-03T12:07:50.787Z,37.03
2019-03-03T12:13:45.753Z,38.61
2019-03-03T12:19:40.762Z,38.41
2019-03-03T12:27:58.731Z,37.61
2019-03-03T12:33:53.733Z,38.12
2019-03-03T12:39:48.727Z,40.49
2019-03-03T12:45:43.747Z,37.33
2019-03-03T12:51:38.783Z,36.87
2019-03-03T12:57:33.835Z,29.59
2019-03-03T13:03:28.752Z,29.15
2019-03-03T13:09:23.751Z,32.03
2019-03-03T13:15:18.771Z,26.6
2019-03-03T13:21:13.772Z,26.93
2019-03-03T13:27:08.780Z,27.79
2019-03-03T13:33:03.784Z,32.39
2019-03-03T13:38:58.803Z,32.96
2019-03-03T13:44:53.777Z,28.75
2019-03-03T13:50:48.779Z,26.93
2019-03-03T13:56:43.795Z,26
2019-03-03T14:02:38.851Z,31.32
2019-03-03T14:08:33.804Z,34.75
2019-03-03T14:14:28.803Z,21.52
2019-03-03T14:20:23.814Z,21.53
2019-03-03T14:26:18.840Z,20.59
2019-03-03T14:32:13.818Z,19.98
2019-03-03T14:38:08.797Z,17.2
2019-03-03T14:44:03.814Z,18.42
2019-03-03T14:49:58.838Z,20.69
2019-03-03T14:55:53.825Z,19.02
2019-03-03T15:01:48.807Z,18.93
2019-03-03T15:07:45.735Z,19.71
2019-03-03T15:13:38.858Z,19.04
2019-03-03T15:19:33.888Z,20.55
2019-03-03T15:25:28.830Z,19.33
2019-03-03T15:31:23.842Z,17.26
2019-03-03T15:37:18.922Z,12.62
2019-03-03T15:43:13.870Z,14.97
2019-03-03T15:49:08.864Z,11.43
2019-03-03T15:55:03.849Z,12.72
2019-03-03T16:00:58.875Z,14.53
2019-03-03T16:06:53.874Z,12.57
2019-03-03T16:12:48.875Z,14.14
2019-03-03T16:18:43.862Z,12.78
2019-03-03T16:24:38.891Z,13.31
2019-03-03T16:30:33.908Z,12.07
2019-03-03T16:36:28.955Z,12.9
2019-03-03T16:42:23.923Z,9.89
2019-03-03T16:48:18.893Z,19.11
2019-03-03T16:54:13.896Z,13.87
2019-03-03T17:00:08.908Z,17.01
2019-03-03T17:06:03.902Z,12.23
2019-03-03T17:11:58.911Z,28.44
2019-03-03T17:17:53.942Z,22.6
2019-03-03T17:23:48.959Z,17.78
2019-03-03T17:29:43.955Z,19.01
2019-03-03T17:35:39.002Z,15.68
2019-03-03T17:41:33.928Z,15.33
2019-03-03T17:47:28.954Z,17.01
2019-03-03T17:53:23.928Z,14.73
2019-03-03T17:59:18.957Z,12.61
2019-03-03T18:05:13.937Z,13.36
2019-03-03T18:11:08.949Z,12.16
2019-03-03T18:17:04.009Z,11.61
2019-03-03T18:22:58.974Z,12.31
2019-03-03T18:28:53.936Z,11.33
2019-03-03T18:34:48.952Z,14.35
2019-03-03T18:40:43.948Z,9.04
2019-03-03T18:46:38.985Z,14.18
2019-03-03T18:52:34.026Z,11.63
2019-03-03T18:58:28.979Z,11.28
2019-03-03T19:04:23.968Z,12.26
2019-03-03T19:10:18.975Z,13.54
2019-03-03T19:16:13.998Z,13.79
2019-03-03T19:22:09.024Z,17.77
2019-03-03T19:28:04.003Z,24.42
2019-03-03T19:33:59.015Z,23.34
2019-03-03T19:39:54.022Z,24.41
2019-03-03T19:45:49.060Z,24.33
2019-03-03T19:51:44.048Z,24.01
2019-03-03T19:57:39.007Z,22.45
2019-03-03T20:03:34.021Z,23.8
2019-03-03T20:09:29.008Z,20.88
2019-03-03T20:15:24.009Z,20.65
2019-03-03T20:21:18.998Z,23.57
2019-03-03T20:27:14.009Z,22.42
2019-03-03T20:33:09.014Z,28.94
2019-03-03T20:39:04.019Z,23.1
2019-03-03T20:44:59.036Z,34.3
2019-03-03T20:50:54.058Z,25.12
2019-03-03T20:56:49.050Z,31.86
2019-03-03T21:02:44.015Z,23.4
2019-03-03T21:08:39.048Z,21.64
2019-03-03T21:14:34.037Z,23.09
2019-03-03T21:20:29.046Z,32.09
2019-03-03T21:26:24.044Z,27.63
2019-03-03T21:32:19.053Z,26.89
2019-03-03T21:38:14.071Z,26.08
2019-03-03T21:44:09.086Z,27.73
2019-03-03T21:50:04.089Z,23.97
2019-03-03T21:55:59.056Z,31.23
2019-03-03T22:01:54.104Z,29.82
2019-03-03T22:07:49.076Z,24.63
2019-03-03T22:13:44.076Z,23.21
2019-03-03T22:19:39.097Z,25.5
2019-03-03T22:25:34.134Z,26.36
2019-03-03T22:31:29.097Z,28.41
2019-03-03T22:37:24.079Z,27.03
2019-03-03T22:43:19.161Z,26.14
2019-03-03T22:49:14.109Z,21.23
2019-03-03T22:55:09.114Z,26.74
2019-03-03T23:01:04.123Z,28.38
2019-03-03T23:06:59.130Z,22.53
2019-03-03T23:12:54.096Z,26.18
2019-03-03T23:18:49.109Z,29.39
2019-03-03T23:24:44.169Z,34.95
2019-03-03T23:30:39.118Z,35.15
2019-03-03T23:36:34.111Z,33.87
2019-03-03T23:42:29.136Z,27.19
2019-03-03T23:48:24.148Z,28.56
2019-03-03T23:54:19.123Z,32.85
